createdAt,value
2017-11-09T00:00:37.774Z,7.00
2017-11-09T00:03:05.533Z,7.00
2017-11-09T00:05:38.760Z,7.00
2017-11-09T00:08:06.266Z,7.00
2017-11-09T00:10:33.742Z,7.00
2017-11-09T00:13:01.216Z,6.90
2017-11-09T00:15:28.714Z,7.00
2017-11-09T00:17:56.958Z,7.00
2017-11-09T00:20:24.429Z,7.00
2017-11-09T00:22:51.926Z,7.00
2017-11-09T00:25:19.395Z,7.00
2017-11-09T00:27:46.866Z,7.10
2017-11-09T00:30:14.355Z,7.10
2017-11-09T00:32:42.622Z,7.00
2017-11-09T00:35:10.122Z,7.00
2017-11-09T00:37:37.711Z,7.00
2017-11-09T00:40:05.183Z,7.00
2017-11-09T00:42:32.678Z,7.00
2017-11-09T00:45:00.923Z,6.90
2017-11-09T00:47:28.398Z,6.90
2017-11-09T00:49:55.878Z,6.90
2017-11-09T00:52:24.114Z,6.90
2017-11-09T00:54:51.609Z,6.90
2017-11-09T00:57:19.854Z,6.90
2017-11-09T00:59:47.350Z,6.90
2017-11-09T01:02:15.602Z,6.90
2017-11-09T01:04:43.075Z,6.90
2017-11-09T01:07:11.335Z,6.90
2017-11-09T01:09:38.810Z,6.90
2017-11-09T01:12:07.052Z,6.80
2017-11-09T01:14:34.552Z,6.90
2017-11-09T01:17:02.022Z,6.80
2017-11-09T01:19:29.498Z,6.90
2017-11-09T01:21:56.997Z,6.90
2017-11-09T01:24:25.242Z,6.90
2017-11-09T01:26:52.713Z,6.90
2017-11-09T01:29:20.211Z,6.90
2017-11-09T01:31:47.695Z,6.80
2017-11-09T01:34:15.172Z,6.80
2017-11-09T01:36:42.665Z,6.80
2017-11-09T01:39:11.197Z,6.80
2017-11-09T01:41:38.670Z,6.80
2017-11-09T01:44:06.166Z,6.80
2017-11-09T01:46:34.410Z,6.80
2017-11-09T01:49:02.146Z,6.80
2017-11-09T01:51:29.646Z,6.80
2017-11-09T01:53:57.119Z,6.80
2017-11-09T01:56:25.361Z,6.70
2017-11-09T01:58:52.860Z,6.70
2017-11-09T02:01:21.099Z,6.80
2017-11-09T02:03:48.574Z,6.80
2017-11-09T02:06:16.066Z,6.70
2017-11-09T02:08:43.536Z,6.60
2017-11-09T02:11:11.019Z,6.60
2017-11-09T02:13:38.516Z,6.60
2017-11-09T02:16:06.757Z,6.60
2017-11-09T02:18:34.230Z,6.60
2017-11-09T02:21:01.758Z,6.60
2017-11-09T02:23:29.250Z,6.60
2017-11-09T02:25:57.519Z,6.60
2017-11-09T02:28:25.031Z,6.60
2017-11-09T02:30:52.506Z,6.60
2017-11-09T02:33:19.994Z,6.60
2017-11-09T02:35:47.505Z,6.60
2017-11-09T02:38:14.995Z,6.70
2017-11-09T02:40:42.482Z,6.70
2017-11-09T02:43:10.742Z,6.70
2017-11-09T02:45:38.230Z,6.70
2017-11-09T02:48:05.702Z,6.70
2017-11-09T02:50:33.197Z,6.60
2017-11-09T02:53:00.693Z,6.60
2017-11-09T02:55:28.193Z,6.50
2017-11-09T02:57:55.698Z,6.50
2017-11-09T03:00:23.934Z,6.50
2017-11-09T03:02:51.446Z,6.50
2017-11-09T03:05:19.743Z,6.50
2017-11-09T03:07:47.278Z,6.50
2017-11-09T03:10:15.521Z,6.40
2017-11-09T03:12:43.029Z,6.40
2017-11-09T03:15:10.505Z,6.40
2017-11-09T03:17:37.978Z,6.50
2017-11-09T03:20:05.467Z,6.40
2017-11-09T03:22:33.713Z,6.50
2017-11-09T03:25:01.182Z,6.40
2017-11-09T03:27:29.443Z,6.50
2017-11-09T03:29:56.918Z,6.50
2017-11-09T03:32:25.177Z,6.60
2017-11-09T03:34:52.669Z,6.50
2017-11-09T03:37:20.914Z,6.60
2017-11-09T03:39:48.386Z,6.60
2017-11-09T03:42:15.882Z,6.60
2017-11-09T03:44:43.355Z,6.50
2017-11-09T03:47:10.830Z,6.60
2017-11-09T03:49:38.322Z,6.60
2017-11-09T03:52:06.559Z,6.60
2017-11-09T03:54:34.030Z,6.60
2017-11-09T03:57:01.526Z,6.60
2017-11-09T03:59:29.899Z,6.50
2017-11-09T04:01:58.138Z,6.60
2017-11-09T04:04:26.398Z,6.60
2017-11-09T04:06:53.883Z,6.50
2017-11-09T04:09:21.363Z,6.60
2017-11-09T04:11:49.626Z,6.60
2017-11-09T04:14:17.106Z,6.60
2017-11-09T04:16:45.346Z,6.60
2017-11-09T04:19:12.842Z,6.60
2017-11-09T04:21:41.082Z,6.60
2017-11-09T04:24:08.562Z,6.60
2017-11-09T04:29:11.522Z,6.60
2017-11-09T04:31:39.082Z,6.60
2017-11-09T04:34:07.334Z,6.60
2017-11-09T04:36:34.811Z,6.60
2017-11-09T04:39:03.086Z,6.70
2017-11-09T04:41:31.330Z,6.70
2017-11-09T04:43:58.808Z,6.70
2017-11-09T04:46:26.302Z,6.60
2017-11-09T04:48:53.799Z,6.70
2017-11-09T04:51:21.280Z,6.70
2017-11-09T04:53:48.781Z,6.70
2017-11-09T04:56:16.253Z,6.70
2017-11-09T04:58:44.504Z,6.60
2017-11-09T05:01:12.008Z,6.60
2017-11-09T05:03:39.479Z,6.60
2017-11-09T05:06:06.966Z,6.60
2017-11-09T05:08:34.466Z,6.60
2017-11-09T05:11:02.786Z,6.50
2017-11-09T05:13:30.258Z,6.50
2017-11-09T05:15:58.519Z,6.60
2017-11-09T05:18:25.995Z,6.60
2017-11-09T05:20:53.473Z,6.60
2017-11-09T05:23:21.734Z,6.60
2017-11-09T05:25:49.207Z,6.60
2017-11-09T05:28:16.683Z,6.60
2017-11-09T05:30:44.942Z,6.60
2017-11-09T05:33:13.179Z,6.60
2017-11-09T05:35:40.658Z,6.60
2017-11-09T05:38:08.154Z,6.60
2017-11-09T05:40:35.627Z,6.60
2017-11-09T05:43:03.099Z,6.60
2017-11-09T05:45:30.595Z,6.70
2017-11-09T05:47:58.078Z,6.70
2017-11-09T05:50:25.843Z,6.70
2017-11-09T05:52:53.383Z,6.70
2017-11-09T05:55:21.630Z,6.70
2017-11-09T05:57:49.114Z,6.70
2017-11-09T06:00:17.386Z,6.70
2017-11-09T06:02:45.631Z,6.70
2017-11-09T06:05:13.106Z,6.70
2017-11-09T06:07:40.601Z,6.70
2017-11-09T06:10:08.089Z,6.70
2017-11-09T06:12:35.573Z,6.70
2017-11-09T06:15:03.069Z,6.70
2017-11-09T06:17:30.554Z,6.70
2017-11-09T06:19:58.038Z,6.80
2017-11-09T06:22:25.530Z,6.80
2017-11-09T06:24:53.777Z,6.80
2017-11-09T06:27:21.254Z,6.80
2017-11-09T06:29:48.750Z,6.80
2017-11-09T06:32:16.226Z,6.80
2017-11-09T06:34:43.699Z,6.80
2017-11-09T06:37:11.205Z,6.80
2017-11-09T06:39:39.443Z,6.70
2017-11-09T06:42:06.923Z,6.70
2017-11-09T06:44:35.186Z,6.70
2017-11-09T06:47:03.441Z,6.80
2017-11-09T06:49:30.923Z,6.70
2017-11-09T06:51:58.419Z,6.80
2017-11-09T06:54:25.920Z,6.80
2017-11-09T06:56:53.399Z,6.80
2017-11-09T06:59:21.657Z,6.80
2017-11-09T07:01:49.135Z,6.80
2017-11-09T07:04:17.381Z,6.80
2017-11-09T07:06:44.878Z,6.70
2017-11-09T07:09:13.115Z,6.70
2017-11-09T07:11:40.596Z,6.70
2017-11-09T07:14:08.871Z,6.70
2017-11-09T07:16:36.342Z,6.60
2017-11-09T07:19:04.578Z,6.60
2017-11-09T07:21:32.074Z,6.60
2017-11-09T07:24:00.321Z,6.60
2017-11-09T07:26:27.798Z,6.60
2017-11-09T07:28:56.066Z,6.60
2017-11-09T07:31:23.538Z,6.60
2017-11-09T07:33:51.783Z,6.60
2017-11-09T07:36:19.283Z,6.60
2017-11-09T07:38:46.754Z,6.60
2017-11-09T07:41:14.227Z,6.60
2017-11-09T07:43:41.731Z,6.50
2017-11-09T07:46:09.969Z,6.50
2017-11-09T07:48:37.453Z,6.50
2017-11-09T07:51:04.951Z,6.50
2017-11-09T07:53:32.422Z,6.50
2017-11-09T07:55:59.899Z,6.50
2017-11-09T07:58:28.170Z,6.60
2017-11-09T08:00:56.409Z,6.70
2017-11-09T08:03:23.883Z,6.70
2017-11-09T08:05:51.383Z,6.70
2017-11-09T08:08:18.855Z,6.70
2017-11-09T08:10:46.330Z,6.70
2017-11-09T08:13:14.590Z,6.70
2017-11-09T08:15:42.063Z,6.70
2017-11-09T08:18:09.539Z,6.70
2017-11-09T08:20:37.040Z,6.70
2017-11-09T08:23:04.525Z,6.70
2017-11-09T08:25:36.075Z,6.80
2017-11-09T08:28:05.218Z,6.80
2017-11-09T08:30:35.958Z,6.80
2017-11-09T08:33:04.734Z,6.80
2017-11-09T08:35:32.214Z,6.80
2017-11-09T08:37:59.711Z,6.80
2017-11-09T08:40:27.951Z,6.80
2017-11-09T08:42:55.695Z,6.80
2017-11-09T08:45:23.194Z,6.90
2017-11-09T08:47:50.697Z,6.90
2017-11-09T08:50:18.162Z,6.90
2017-11-09T08:52:45.658Z,6.90
2017-11-09T08:55:13.135Z,6.90
2017-11-09T08:57:41.375Z,7.00
2017-11-09T09:00:08.876Z,7.00
2017-11-09T09:02:36.370Z,7.10
2017-11-09T09:05:03.842Z,7.00
2017-11-09T09:07:31.339Z,7.00
2017-11-09T09:09:59.583Z,7.00
2017-11-09T09:12:27.055Z,7.00
2017-11-09T09:14:54.551Z,7.10
2017-11-09T09:17:22.026Z,7.10
2017-11-09T09:19:49.504Z,7.10
2017-11-09T09:22:20.658Z,7.20
2017-11-09T09:24:48.134Z,7.20
2017-11-09T09:27:22.178Z,7.20
2017-11-09T09:29:51.458Z,7.30
2017-11-09T09:32:29.704Z,7.40
2017-11-09T09:34:58.459Z,7.40
2017-11-09T09:37:32.694Z,7.40
2017-11-09T09:40:01.591Z,7.40
2017-11-09T09:42:29.063Z,7.40
2017-11-09T09:44:56.554Z,7.50
2017-11-09T09:47:24.030Z,7.50
2017-11-09T09:49:52.272Z,7.50
2017-11-09T09:52:19.776Z,7.50
2017-11-09T09:54:47.259Z,7.50
2017-11-09T09:57:14.738Z,7.50
2017-11-09T09:59:42.242Z,7.60
2017-11-09T10:02:10.478Z,7.50
2017-11-09T10:04:37.954Z,7.50
2017-11-09T10:07:05.454Z,7.60
2017-11-09T10:09:32.931Z,7.50
2017-11-09T10:12:00.406Z,7.50
2017-11-09T10:14:27.898Z,7.50
2017-11-09T10:16:56.139Z,7.60
2017-11-09T10:19:23.627Z,7.50
2017-11-09T10:21:51.891Z,7.60
2017-11-09T10:24:19.370Z,7.60
2017-11-09T10:26:47.895Z,7.60
2017-11-09T10:29:15.428Z,7.60
2017-11-09T10:31:42.903Z,7.60
2017-11-09T10:34:10.395Z,7.60
2017-11-09T10:36:37.894Z,7.60
2017-11-09T10:39:05.367Z,7.70
2017-11-09T10:41:32.849Z,7.70
2017-11-09T10:44:00.343Z,7.80
2017-11-09T10:46:28.592Z,7.90
2017-11-09T10:48:56.078Z,7.90
2017-11-09T10:51:24.346Z,8.00
2017-11-09T10:53:51.830Z,8.00
2017-11-09T10:56:19.623Z,8.00
2017-11-09T10:58:47.121Z,7.90
2017-11-09T11:01:14.600Z,7.90
2017-11-09T11:03:42.840Z,7.80
2017-11-09T11:06:10.342Z,7.80
2017-11-09T11:08:37.815Z,7.80
2017-11-09T11:11:05.314Z,7.80
2017-11-09T11:13:32.807Z,7.80
2017-11-09T11:16:01.050Z,7.90
2017-11-09T11:18:28.530Z,7.90
2017-11-09T11:20:56.794Z,8.10
2017-11-09T11:23:25.042Z,8.10
2017-11-09T11:25:52.523Z,8.10
2017-11-09T11:28:20.016Z,8.10
2017-11-09T11:30:47.499Z,8.10
2017-11-09T11:33:14.982Z,8.10
2017-11-09T11:35:42.491Z,8.10
2017-11-09T11:38:09.971Z,8.00
2017-11-09T11:40:37.446Z,8.10
2017-11-09T11:43:04.942Z,8.00
2017-11-09T11:45:33.195Z,8.10
2017-11-09T11:48:00.653Z,8.10
2017-11-09T11:50:28.158Z,8.10
2017-11-09T11:52:55.638Z,8.10
2017-11-09T11:55:23.114Z,8.10
2017-11-09T11:57:50.618Z,8.10
2017-11-09T12:00:18.090Z,8.10
2017-11-09T12:02:45.559Z,8.00
2017-11-09T12:05:15.882Z,8.10
2017-11-09T12:07:43.354Z,8.20
2017-11-09T12:10:10.833Z,8.10
2017-11-09T12:12:38.325Z,8.10
2017-11-09T12:15:05.799Z,8.10
2017-11-09T12:17:33.275Z,8.10
2017-11-09T12:20:00.766Z,8.10
2017-11-09T12:22:29.306Z,8.20
2017-11-09T12:24:56.775Z,8.20
2017-11-09T12:27:24.271Z,8.20
2017-11-09T12:29:52.511Z,8.10
2017-11-09T12:32:19.983Z,8.10
2017-11-09T12:34:47.721Z,8.20
2017-11-09T12:37:15.191Z,8.10
2017-11-09T12:39:42.667Z,8.20
2017-11-09T12:42:10.159Z,8.20
2017-11-09T12:44:38.455Z,8.20
2017-11-09T12:47:05.941Z,8.20
2017-11-09T12:49:33.437Z,8.20
2017-11-09T12:52:01.675Z,8.20
2017-11-09T12:54:29.146Z,8.20
2017-11-09T12:56:56.657Z,8.20
2017-11-09T12:59:24.123Z,8.20
2017-11-09T13:01:51.600Z,8.20
2017-11-09T13:04:19.105Z,8.20
2017-11-09T13:06:47.346Z,8.20
2017-11-09T13:09:14.826Z,8.20
2017-11-09T13:11:42.318Z,8.30
2017-11-09T13:14:09.791Z,8.30
2017-11-09T13:16:37.262Z,8.30
2017-11-09T13:19:04.758Z,8.30
2017-11-09T13:21:32.998Z,8.30
2017-11-09T13:24:00.475Z,8.30
2017-11-09T13:26:27.971Z,8.40
2017-11-09T13:28:55.447Z,8.40
2017-11-09T13:31:22.923Z,8.40
2017-11-09T13:33:50.674Z,8.40
2017-11-09T13:36:18.147Z,8.40
2017-11-09T13:38:45.622Z,8.50
2017-11-09T13:41:13.117Z,8.50
2017-11-09T13:43:40.586Z,8.50
2017-11-09T13:46:08.067Z,8.50
2017-11-09T13:48:35.559Z,8.50
2017-11-09T13:51:03.037Z,8.50
2017-11-09T13:53:31.295Z,8.60
2017-11-09T13:55:58.791Z,8.50
2017-11-09T13:58:26.269Z,8.60
2017-11-09T14:00:54.658Z,8.50
2017-11-09T14:03:22.155Z,8.50
2017-11-09T14:05:50.394Z,8.50
2017-11-09T14:08:17.866Z,8.50
2017-11-09T14:10:45.358Z,8.50
2017-11-09T14:13:13.594Z,8.40
2017-11-09T14:15:41.063Z,8.40
2017-11-09T14:18:08.567Z,8.40
2017-11-09T14:20:36.043Z,8.40
2017-11-09T14:23:03.519Z,8.30
2017-11-09T14:25:31.023Z,8.30
2017-11-09T14:27:58.494Z,8.20
2017-11-09T14:30:25.965Z,8.30
2017-11-09T14:32:53.466Z,8.30
2017-11-09T14:35:20.940Z,8.30
2017-11-09T14:37:49.178Z,8.30
2017-11-09T14:40:16.672Z,8.30
2017-11-09T14:42:44.911Z,8.20
2017-11-09T14:45:12.391Z,8.20
2017-11-09T14:47:39.902Z,8.30
2017-11-09T14:50:07.374Z,8.30
2017-11-09T14:52:34.867Z,8.30
2017-11-09T14:55:03.128Z,8.20
2017-11-09T14:57:30.598Z,8.20
2017-11-09T14:59:58.066Z,8.20
2017-11-09T15:02:26.935Z,8.20
2017-11-09T15:04:54.418Z,8.20
2017-11-09T15:07:22.652Z,8.20
2017-11-09T15:09:50.618Z,8.20
2017-11-09T15:12:19.189Z,8.20
2017-11-09T15:14:46.674Z,8.20
2017-11-09T15:17:15.882Z,8.20
2017-11-09T15:19:44.029Z,8.20
2017-11-09T15:22:11.761Z,8.10
2017-11-09T15:24:47.612Z,8.10
2017-11-09T15:27:15.516Z,8.10
2017-11-09T15:29:44.001Z,7.90
2017-11-09T15:32:11.530Z,7.90
2017-11-09T15:34:40.029Z,8.00
2017-11-09T15:37:07.518Z,8.00
2017-11-09T15:39:36.261Z,8.00
2017-11-09T15:42:03.817Z,8.00
2017-11-09T15:44:31.786Z,8.00
2017-11-09T15:46:59.441Z,8.00
2017-11-09T15:49:26.935Z,7.90
2017-11-09T15:51:54.421Z,8.00
2017-11-09T15:54:21.946Z,7.90
2017-11-09T15:56:49.424Z,7.90
2017-11-09T15:59:16.899Z,7.90
2017-11-09T16:01:45.159Z,8.00
2017-11-09T16:04:13.402Z,7.90
2017-11-09T16:06:41.704Z,7.90
2017-11-09T16:09:09.199Z,7.90
2017-11-09T16:11:36.670Z,8.00
2017-11-09T16:14:04.152Z,7.90
2017-11-09T16:16:32.483Z,7.90
2017-11-09T16:19:01.535Z,7.80
2017-11-09T16:21:29.009Z,7.70
2017-11-09T16:23:57.278Z,7.70
2017-11-09T16:26:26.728Z,7.70
2017-11-09T16:29:00.235Z,7.70
2017-11-09T16:31:27.706Z,7.70
2017-11-09T16:33:55.178Z,7.70
2017-11-09T16:36:22.676Z,7.70
2017-11-09T16:38:51.186Z,7.70
2017-11-09T16:41:18.666Z,7.70
2017-11-09T16:43:46.162Z,7.70
2017-11-09T16:46:14.414Z,7.80
2017-11-09T16:48:41.899Z,7.80
2017-11-09T16:51:10.154Z,7.80
2017-11-09T16:53:37.625Z,7.80
2017-11-09T16:56:05.867Z,7.80
2017-11-09T16:58:33.363Z,7.80
2017-11-09T17:01:01.606Z,7.80
2017-11-09T17:03:29.083Z,7.80
2017-11-09T17:05:57.351Z,7.80
2017-11-09T17:08:24.821Z,7.70
2017-11-09T17:10:53.058Z,7.70
2017-11-09T17:13:20.559Z,7.70
2017-11-09T17:15:48.798Z,7.70
2017-11-09T17:18:21.910Z,7.70
2017-11-09T17:20:49.383Z,7.70
2017-11-09T17:23:17.632Z,7.70
2017-11-09T17:25:45.356Z,7.70
2017-11-09T17:28:12.831Z,7.70
2017-11-09T17:30:40.314Z,7.70
2017-11-09T17:33:07.802Z,7.60
2017-11-09T17:35:35.275Z,7.60
2017-11-09T17:38:02.758Z,7.60
2017-11-09T17:40:30.326Z,7.50
2017-11-09T17:42:58.758Z,7.50
2017-11-09T17:45:26.247Z,7.40
2017-11-09T17:47:53.749Z,7.40
2017-11-09T17:50:21.989Z,7.50
2017-11-09T17:52:50.404Z,7.40
2017-11-09T17:55:17.919Z,7.40
2017-11-09T17:57:48.389Z,7.40
2017-11-09T18:00:17.511Z,7.40
2017-11-09T18:02:45.013Z,7.40
2017-11-09T18:05:12.495Z,7.40
2017-11-09T18:07:40.805Z,7.30
2017-11-09T18:10:08.289Z,7.30
2017-11-09T18:12:35.773Z,7.30
2017-11-09T18:15:03.275Z,7.30
2017-11-09T18:17:30.753Z,7.20
2017-11-09T18:19:58.238Z,7.20
2017-11-09T18:22:27.550Z,7.30
2017-11-09T18:24:55.023Z,7.20
2017-11-09T18:27:23.269Z,7.20
2017-11-09T18:29:51.619Z,7.20
2017-11-09T18:32:19.094Z,7.20
2017-11-09T18:34:46.571Z,7.20
2017-11-09T18:37:14.068Z,7.20
2017-11-09T18:39:41.548Z,7.20
2017-11-09T18:42:09.318Z,7.20
2017-11-09T18:44:36.818Z,7.20
2017-11-09T18:47:05.059Z,7.20
2017-11-09T18:49:32.534Z,7.20
2017-11-09T18:52:00.234Z,7.10
2017-11-09T18:54:27.750Z,7.10
2017-11-09T18:56:55.233Z,7.10
2017-11-09T18:59:24.398Z,7.10
2017-11-09T19:01:51.874Z,7.10
2017-11-09T19:04:19.437Z,7.10
2017-11-09T19:06:47.737Z,7.10
2017-11-09T19:09:15.218Z,7.00
2017-11-09T19:11:42.691Z,7.00
2017-11-09T19:14:10.210Z,7.10
2017-11-09T19:16:37.698Z,7.10
2017-11-09T19:19:05.178Z,7.10
2017-11-09T19:21:32.675Z,7.10
2017-11-09T19:24:00.922Z,7.20
2017-11-09T19:26:28.401Z,7.10
2017-11-09T19:28:56.677Z,7.20
2017-11-09T19:31:24.924Z,7.20
2017-11-09T19:33:52.401Z,7.20
2017-11-09T19:36:19.905Z,7.20
2017-11-09T19:38:47.385Z,7.20
2017-11-09T19:41:15.165Z,7.20
2017-11-09T19:43:43.739Z,7.20
2017-11-09T19:46:11.831Z,7.10
2017-11-09T19:48:39.384Z,7.10
2017-11-09T19:51:06.890Z,7.10
2017-11-09T19:53:34.535Z,7.10
2017-11-09T19:56:02.019Z,7.10
2017-11-09T19:58:29.518Z,7.10
2017-11-09T20:00:56.994Z,7.10
2017-11-09T20:03:25.238Z,7.10
2017-11-09T20:05:52.743Z,7.10
2017-11-09T20:08:20.219Z,7.10
2017-11-09T20:10:47.698Z,7.20
2017-11-09T20:13:15.191Z,7.10
2017-11-09T20:15:43.436Z,7.20
2017-11-09T20:18:10.912Z,7.20
2017-11-09T20:20:38.453Z,7.20
2017-11-09T20:23:05.926Z,7.20
2017-11-09T20:25:33.402Z,7.20
2017-11-09T20:28:01.931Z,7.20
2017-11-09T20:30:29.694Z,7.20
2017-11-09T20:32:57.174Z,7.10
2017-11-09T20:35:24.915Z,7.00
2017-11-09T20:37:52.387Z,7.00
2017-11-09T20:40:20.631Z,7.00
2017-11-09T20:42:48.410Z,7.00
2017-11-09T20:45:15.888Z,7.10
2017-11-09T20:47:43.369Z,7.10
2017-11-09T20:50:10.863Z,7.10
2017-11-09T20:52:38.342Z,7.20
2017-11-09T20:55:05.818Z,7.20
2017-11-09T20:57:33.318Z,7.20
2017-11-09T21:00:01.564Z,7.20
2017-11-09T21:02:29.042Z,7.20
2017-11-09T21:04:57.305Z,7.20
2017-11-09T21:07:25.554Z,7.20
2017-11-09T21:09:53.031Z,7.20
2017-11-09T21:12:20.526Z,7.20
2017-11-09T21:14:47.998Z,7.20
2017-11-09T21:17:15.470Z,7.20
2017-11-09T21:19:42.982Z,7.30
2017-11-09T21:22:11.217Z,7.30
2017-11-09T21:24:38.963Z,7.30
2017-11-09T21:27:06.456Z,7.30
2017-11-09T21:29:33.938Z,7.40
2017-11-09T21:32:02.178Z,7.30
2017-11-09T21:34:29.674Z,7.30
2017-11-09T21:36:57.909Z,7.30
2017-11-09T21:39:25.382Z,7.30
2017-11-09T21:41:52.887Z,7.30
2017-11-09T21:44:20.358Z,7.30
2017-11-09T21:46:47.834Z,7.30
2017-11-09T21:49:15.335Z,7.30
2017-11-09T21:51:43.574Z,7.30
2017-11-09T21:54:11.054Z,7.20
2017-11-09T21:56:39.314Z,7.30
2017-11-09T21:59:06.804Z,7.30
2017-11-09T22:01:34.280Z,7.30
2017-11-09T22:04:01.783Z,7.30
2017-11-09T22:06:29.266Z,7.30
2017-11-09T22:08:57.506Z,7.30
2017-11-09T22:11:25.000Z,7.30
2017-11-09T22:13:53.242Z,7.30
2017-11-09T22:16:20.723Z,7.30
2017-11-09T22:18:48.991Z,7.20
2017-11-09T22:21:16.471Z,7.20
2017-11-09T22:23:44.714Z,7.20
2017-11-09T22:26:12.207Z,7.10
2017-11-09T22:28:40.451Z,6.80
2017-11-09T22:31:07.931Z,6.80
2017-11-09T22:33:36.190Z,6.80
2017-11-09T22:36:03.674Z,6.70
2017-11-09T22:38:31.918Z,7.00
2017-11-09T22:40:59.426Z,7.00
2017-11-09T22:43:26.913Z,7.00
2017-11-09T22:45:54.659Z,7.10
2017-11-09T22:48:22.162Z,7.20
2017-11-09T22:50:49.634Z,7.20
2017-11-09T22:53:17.874Z,7.30
2017-11-09T22:55:46.134Z,7.30
2017-11-09T22:58:14.395Z,7.30
2017-11-09T23:00:41.873Z,7.30
2017-11-09T23:03:09.366Z,7.30
2017-11-09T23:05:37.940Z,7.30
2017-11-09T23:08:05.414Z,7.30
2017-11-09T23:10:33.679Z,7.30
2017-11-09T23:13:01.933Z,7.20
2017-11-09T23:15:29.413Z,7.20
2017-11-09T23:17:57.674Z,7.20
2017-11-09T23:20:25.191Z,7.10
2017-11-09T23:22:52.666Z,7.00
2017-11-09T23:25:20.174Z,7.00
2017-11-09T23:27:48.418Z,7.00
2017-11-09T23:30:15.898Z,7.00
2017-11-09T23:32:44.158Z,7.00
2017-11-09T23:35:11.634Z,6.90
2017-11-09T23:37:39.875Z,6.80
2017-11-09T23:40:07.377Z,6.80
2017-11-09T23:42:34.850Z,6.80
2017-11-09T23:45:02.333Z,6.80
2017-11-09T23:47:29.835Z,6.80
2017-11-09T23:49:58.075Z,6.70
2017-11-09T23:52:25.819Z,6.70
2017-11-09T23:54:53.315Z,6.70
2017-11-09T23:57:20.786Z,6.60
2017-11-09T23:59:49.040Z,6.60
